sensor_id;sensor_type;location;lat;lon;timestamp;P1;durP1;ratioP1;P2;durP2;ratioP2
75437;SDS011;64015;49.392;15.582;2023-03-01T00:03:28;36.83;;;15.40;;
75437;SDS011;64015;49.392;15.582;2023-03-01T00:05:54;34.33;;;13.02;;
75437;SDS011;64015;49.392;15.582;2023-03-01T00:08:20;29.55;;;12.75;;
75437;SDS011;64015;49.392;15.582;2023-03-01T00:10:46;33.63;;;12.10;;
75437;SDS011;64015;49.392;15.582;2023-03-01T00:13:12;33.55;;;12.23;;
75437;SDS011;64015;49.392;15.582;2023-03-01T00:15:38;29.33;;;11.45;;
75437;SDS011;64015;49.392;15.582;2023-03-01T00:18:05;26.95;;;10.93;;
75437;SDS011;64015;49.392;15.582;2023-03-01T00:20:31;31.70;;;11.63;;
75437;SDS011;64015;49.392;15.582;2023-03-01T00:22:56;32.67;;;12.75;;
75437;SDS011;64015;49.392;15.582;2023-03-01T00:25:22;33.28;;;12.65;;
75437;SDS011;64015;49.392;15.582;2023-03-01T00:27:48;30.40;;;12.23;;
75437;SDS011;64015;49.392;15.582;2023-03-01T00:30:14;31.92;;;11.98;;
75437;SDS011;64015;49.392;15.582;2023-03-01T00:32:40;29.40;;;11.60;;
75437;SDS011;64015;49.392;15.582;2023-03-01T00:35:06;36.08;;;11.77;;
75437;SDS011;64015;49.392;15.582;2023-03-01T00:37:32;32.15;;;12.23;;
75437;SDS011;64015;49.392;15.582;2023-03-01T00:39:57;26.42;;;11.40;;
75437;SDS011;64015;49.392;15.582;2023-03-01T00:42:23;27.10;;;12.13;;
75437;SDS011;64015;49.392;15.582;2023-03-01T00:44:49;33.08;;;11.73;;
75437;SDS011;64015;49.392;15.582;2023-03-01T00:47:14;29.95;;;11.50;;
75437;SDS011;64015;49.392;15.582;2023-03-01T00:49:40;29.30;;;11.77;;
75437;SDS011;64015;49.392;15.582;2023-03-01T00:52:06;30.95;;;11.43;;
75437;SDS011;64015;49.392;15.582;2023-03-01T00:54:34;26.05;;;11.13;;
75437;SDS011;64015;49.392;15.582;2023-03-01T00:57:03;31.20;;;11.48;;
75437;SDS011;64015;49.392;15.582;2023-03-01T00:59:29;24.30;;;10.90;;
75437;SDS011;64015;49.392;15.582;2023-03-01T01:01:54;31.15;;;12.10;;
75437;SDS011;64015;49.392;15.582;2023-03-01T01:04:20;28.90;;;11.52;;
75437;SDS011;64015;49.392;15.582;2023-03-01T01:06:46;28.27;;;11.32;;
75437;SDS011;64015;49.392;15.582;2023-03-01T01:09:13;33.58;;;12.25;;
75437;SDS011;64015;49.392;15.582;2023-03-01T01:11:44;33.83;;;13.40;;
75437;SDS011;64015;49.392;15.582;2023-03-01T01:14:12;26.58;;;11.20;;
75437;SDS011;64015;49.392;15.582;2023-03-01T01:16:37;31.00;;;11.52;;
75437;SDS011;64015;49.392;15.582;2023-03-01T01:19:03;36.65;;;12.45;;
75437;SDS011;64015;49.392;15.582;2023-03-01T01:21:29;29.95;;;11.98;;
75437;SDS011;64015;49.392;15.582;2023-03-01T01:23:55;32.83;;;12.02;;
75437;SDS011;64015;49.392;15.582;2023-03-01T01:26:23;23.20;;;10.80;;
75437;SDS011;64015;49.392;15.582;2023-03-01T01:28:51;25.98;;;11.52;;
75437;SDS011;64015;49.392;15.582;2023-03-01T01:31:17;26.20;;;11.20;;
75437;SDS011;64015;49.392;15.582;2023-03-01T01:33:43;28.45;;;10.35;;
75437;SDS011;64015;49.392;15.582;2023-03-01T01:36:28;26.23;;;10.43;;
75437;SDS011;64015;49.392;15.582;2023-03-01T01:38:54;26.10;;;10.38;;
75437;SDS011;64015;49.392;15.582;2023-03-01T01:41:21;38.08;;;12.15;;
75437;SDS011;64015;49.392;15.582;2023-03-01T01:43:48;29.02;;;11.70;;
75437;SDS011;64015;49.392;15.582;2023-03-01T01:46:35;26.77;;;10.45;;
75437;SDS011;64015;49.392;15.582;2023-03-01T01:51:48;26.30;;;10.48;;
75437;SDS011;64015;49.392;15.582;2023-03-01T01:54:18;24.48;;;10.05;;
75437;SDS011;64015;49.392;15.582;2023-03-01T01:57:07;29.17;;;12.32;;
75437;SDS011;64015;49.392;15.582;2023-03-01T01:59:37;24.60;;;10.57;;
75437;SDS011;64015;49.392;15.582;2023-03-01T02:02:06;24.02;;;10.45;;
75437;SDS011;64015;49.392;15.582;2023-03-01T02:04:35;32.30;;;11.32;;
75437;SDS011;64015;49.392;15.582;2023-03-01T02:07:02;27.80;;;10.25;;
75437;SDS011;64015;49.392;15.582;2023-03-01T02:09:32;35.13;;;11.55;;
75437;SDS011;64015;49.392;15.582;2023-03-01T02:11:59;28.52;;;11.73;;
75437;SDS011;64015;49.392;15.582;2023-03-01T02:14:25;30.98;;;10.85;;
75437;SDS011;64015;49.392;15.582;2023-03-01T02:16:54;26.20;;;12.23;;
75437;SDS011;64015;49.392;15.582;2023-03-01T02:19:31;30.08;;;12.48;;
75437;SDS011;64015;49.392;15.582;2023-03-01T02:22:27;25.02;;;11.27;;
75437;SDS011;64015;49.392;15.582;2023-03-01T02:30:11;28.05;;;10.85;;
75437;SDS011;64015;49.392;15.582;2023-03-01T02:32:40;30.77;;;11.88;;
75437;SDS011;64015;49.392;15.582;2023-03-01T02:35:10;28.70;;;11.25;;
75437;SDS011;64015;49.392;15.582;2023-03-01T02:37:40;27.77;;;10.80;;
75437;SDS011;64015;49.392;15.582;2023-03-01T02:42:39;18.67;;;7.75;;
75437;SDS011;64015;49.392;15.582;2023-03-01T02:45:11;28.23;;;10.23;;
75437;SDS011;64015;49.392;15.582;2023-03-01T02:47:36;25.88;;;10.68;;
75437;SDS011;64015;49.392;15.582;2023-03-01T02:50:02;27.40;;;11.07;;
75437;SDS011;64015;49.392;15.582;2023-03-01T02:55:20;29.88;;;11.60;;
75437;SDS011;64015;49.392;15.582;2023-03-01T02:57:46;29.63;;;11.25;;
75437;SDS011;64015;49.392;15.582;2023-03-01T03:00:17;33.40;;;11.05;;
75437;SDS011;64015;49.392;15.582;2023-03-01T03:02:52;26.95;;;10.70;;
75437;SDS011;64015;49.392;15.582;2023-03-01T03:05:26;26.90;;;10.93;;
75437;SDS011;64015;49.392;15.582;2023-03-01T03:08:11;32.80;;;11.52;;
75437;SDS011;64015;49.392;15.582;2023-03-01T03:10:38;24.02;;;10.95;;
75437;SDS011;64015;49.392;15.582;2023-03-01T03:13:09;26.25;;;11.48;;
75437;SDS011;64015;49.392;15.582;2023-03-01T03:15:38;29.98;;;11.45;;
75437;SDS011;64015;49.392;15.582;2023-03-01T03:18:06;33.22;;;12.55;;
75437;SDS011;64015;49.392;15.582;2023-03-01T03:20:34;27.35;;;11.18;;
75437;SDS011;64015;49.392;15.582;2023-03-01T03:23:01;27.75;;;11.90;;
75437;SDS011;64015;49.392;15.582;2023-03-01T03:25:27;31.80;;;11.05;;
75437;SDS011;64015;49.392;15.582;2023-03-01T03:27:54;29.60;;;10.85;;
75437;SDS011;64015;49.392;15.582;2023-03-01T03:30:27;30.10;;;9.93;;
75437;SDS011;64015;49.392;15.582;2023-03-01T03:32:56;32.17;;;10.93;;
75437;SDS011;64015;49.392;15.582;2023-03-01T03:37:55;27.40;;;10.50;;
75437;SDS011;64015;49.392;15.582;2023-03-01T03:40:31;26.23;;;10.20;;
75437;SDS011;64015;49.392;15.582;2023-03-01T03:43:05;23.83;;;9.77;;
75437;SDS011;64015;49.392;15.582;2023-03-01T03:45:35;26.45;;;10.05;;
75437;SDS011;64015;49.392;15.582;2023-03-01T03:48:02;27.88;;;10.30;;
75437;SDS011;64015;49.392;15.582;2023-03-01T03:50:29;29.45;;;12.55;;
75437;SDS011;64015;49.392;15.582;2023-03-01T03:52:56;26.10;;;10.55;;
75437;SDS011;64015;49.392;15.582;2023-03-01T03:55:22;26.77;;;10.75;;
75437;SDS011;64015;49.392;15.582;2023-03-01T03:57:48;25.05;;;11.23;;
75437;SDS011;64015;49.392;15.582;2023-03-01T04:00:18;30.70;;;12.07;;
75437;SDS011;64015;49.392;15.582;2023-03-01T04:02:45;30.48;;;11.20;;
75437;SDS011;64015;49.392;15.582;2023-03-01T04:05:13;33.22;;;11.40;;
75437;SDS011;64015;49.392;15.582;2023-03-01T04:07:41;27.05;;;11.55;;
75437;SDS011;64015;49.392;15.582;2023-03-01T04:10:12;33.70;;;11.20;;
75437;SDS011;64015;49.392;15.582;2023-03-01T04:12:39;29.05;;;11.07;;
75437;SDS011;64015;49.392;15.582;2023-03-01T04:15:06;27.42;;;9.98;;
75437;SDS011;64015;49.392;15.582;2023-03-01T04:17:45;30.42;;;10.70;;
75437;SDS011;64015;49.392;15.582;2023-03-01T04:20:14;24.52;;;10.20;;
75437;SDS011;64015;49.392;15.582;2023-03-01T04:22:49;26.75;;;11.35;;
75437;SDS011;64015;49.392;15.582;2023-03-01T04:25:44;26.13;;;9.73;;
75437;SDS011;64015;49.392;15.582;2023-03-01T04:28:41;29.58;;;11.82;;
75437;SDS011;64015;49.392;15.582;2023-03-01T04:31:11;27.80;;;10.82;;
75437;SDS011;64015;49.392;15.582;2023-03-01T04:33:49;27.98;;;10.30;;
75437;SDS011;64015;49.392;15.582;2023-03-01T04:36:17;29.27;;;10.88;;
75437;SDS011;64015;49.392;15.582;2023-03-01T04:38:43;21.67;;;9.82;;
75437;SDS011;64015;49.392;15.582;2023-03-01T04:41:13;28.23;;;10.20;;
75437;SDS011;64015;49.392;15.582;2023-03-01T04:43:40;28.77;;;11.13;;
75437;SDS011;64015;49.392;15.582;2023-03-01T04:46:07;29.48;;;11.77;;
75437;SDS011;64015;49.392;15.582;2023-03-01T04:48:35;33.17;;;11.88;;
75437;SDS011;64015;49.392;15.582;2023-03-01T04:53:29;34.63;;;11.93;;
75437;SDS011;64015;49.392;15.582;2023-03-01T04:55:56;26.95;;;11.93;;
75437;SDS011;64015;49.392;15.582;2023-03-01T04:58:23;37.67;;;13.95;;
75437;SDS011;64015;49.392;15.582;2023-03-01T05:00:50;35.92;;;14.05;;
75437;SDS011;64015;49.392;15.582;2023-03-01T05:03:15;30.30;;;12.30;;
75437;SDS011;64015;49.392;15.582;2023-03-01T05:05:44;24.05;;;10.70;;
75437;SDS011;64015;49.392;15.582;2023-03-01T05:08:11;28.02;;;12.27;;
75437;SDS011;64015;49.392;15.582;2023-03-01T05:10:43;33.47;;;12.35;;
75437;SDS011;64015;49.392;15.582;2023-03-01T05:13:11;22.83;;;9.20;;
75437;SDS011;64015;49.392;15.582;2023-03-01T05:15:39;25.50;;;10.60;;
75437;SDS011;64015;49.392;15.582;2023-03-01T05:18:05;24.80;;;9.82;;
75437;SDS011;64015;49.392;15.582;2023-03-01T05:20:36;25.27;;;11.05;;
75437;SDS011;64015;49.392;15.582;2023-03-01T05:23:03;26.63;;;10.50;;
75437;SDS011;64015;49.392;15.582;2023-03-01T05:25:30;24.35;;;11.75;;
75437;SDS011;64015;49.392;15.582;2023-03-01T05:28:02;31.52;;;12.77;;
75437;SDS011;64015;49.392;15.582;2023-03-01T05:30:31;27.15;;;10.50;;
75437;SDS011;64015;49.392;15.582;2023-03-01T05:32:58;29.35;;;10.65;;
75437;SDS011;64015;49.392;15.582;2023-03-01T05:35:24;27.85;;;11.10;;
75437;SDS011;64015;49.392;15.582;2023-03-01T05:37:50;27.27;;;11.45;;
75437;SDS011;64015;49.392;15.582;2023-03-01T05:40:20;26.02;;;11.35;;
75437;SDS011;64015;49.392;15.582;2023-03-01T05:42:53;29.88;;;10.68;;
75437;SDS011;64015;49.392;15.582;2023-03-01T05:45:22;25.33;;;10.57;;
75437;SDS011;64015;49.392;15.582;2023-03-01T05:47:49;71.97;;;28.15;;
75437;SDS011;64015;49.392;15.582;2023-03-01T05:50:19;38.15;;;16.38;;
75437;SDS011;64015;49.392;15.582;2023-03-01T05:52:46;32.17;;;12.02;;
75437;SDS011;64015;49.392;15.582;2023-03-01T05:55:16;32.90;;;12.95;;
75437;SDS011;64015;49.392;15.582;2023-03-01T05:57:45;34.40;;;13.40;;
75437;SDS011;64015;49.392;15.582;2023-03-01T06:00:11;30.58;;;12.55;;
75437;SDS011;64015;49.392;15.582;2023-03-01T06:02:39;39.40;;;13.85;;
75437;SDS011;64015;49.392;15.582;2023-03-01T06:05:06;32.95;;;13.32;;
75437;SDS011;64015;49.392;15.582;2023-03-01T06:07:33;34.47;;;12.18;;
75437;SDS011;64015;49.392;15.582;2023-03-01T06:10:02;31.88;;;12.98;;
75437;SDS011;64015;49.392;15.582;2023-03-01T06:12:30;41.33;;;14.15;;
75437;SDS011;64015;49.392;15.582;2023-03-01T06:14:57;27.20;;;11.75;;
75437;SDS011;64015;49.392;15.582;2023-03-01T06:17:23;29.02;;;12.15;;
75437;SDS011;64015;49.392;15.582;2023-03-01T06:19:59;33.33;;;12.65;;
75437;SDS011;64015;49.392;15.582;2023-03-01T06:22:25;23.55;;;11.38;;
75437;SDS011;64015;49.392;15.582;2023-03-01T06:24:50;37.50;;;12.15;;
75437;SDS011;64015;49.392;15.582;2023-03-01T06:27:16;31.52;;;11.65;;
75437;SDS011;64015;49.392;15.582;2023-03-01T06:29:42;26.52;;;11.00;;
75437;SDS011;64015;49.392;15.582;2023-03-01T06:32:08;33.15;;;12.68;;
75437;SDS011;64015;49.392;15.582;2023-03-01T06:34:33;30.10;;;10.98;;
75437;SDS011;64015;49.392;15.582;2023-03-01T06:36:59;29.98;;;11.32;;
75437;SDS011;64015;49.392;15.582;2023-03-01T06:39:27;32.67;;;13.00;;
75437;SDS011;64015;49.392;15.582;2023-03-01T06:41:53;31.77;;;12.15;;
75437;SDS011;64015;49.392;15.582;2023-03-01T06:44:19;31.65;;;11.32;;
75437;SDS011;64015;49.392;15.582;2023-03-01T06:46:44;32.10;;;12.52;;
75437;SDS011;64015;49.392;15.582;2023-03-01T06:49:10;26.20;;;11.70;;
75437;SDS011;64015;49.392;15.582;2023-03-01T06:51:36;31.15;;;12.07;;
75437;SDS011;64015;49.392;15.582;2023-03-01T06:54:02;36.53;;;13.40;;
75437;SDS011;64015;49.392;15.582;2023-03-01T06:56:31;28.27;;;11.70;;
75437;SDS011;64015;49.392;15.582;2023-03-01T06:58:57;28.88;;;12.65;;
75437;SDS011;64015;49.392;15.582;2023-03-01T07:01:23;32.53;;;12.82;;
75437;SDS011;64015;49.392;15.582;2023-03-01T07:03:49;32.42;;;13.15;;
75437;SDS011;64015;49.392;15.582;2023-03-01T07:06:16;34.22;;;14.38;;
75437;SDS011;64015;49.392;15.582;2023-03-01T07:08:42;36.97;;;13.98;;
75437;SDS011;64015;49.392;15.582;2023-03-01T07:11:08;39.55;;;14.05;;
75437;SDS011;64015;49.392;15.582;2023-03-01T07:13:34;32.30;;;14.20;;
75437;SDS011;64015;49.392;15.582;2023-03-01T07:16:00;28.08;;;13.93;;
75437;SDS011;64015;49.392;15.582;2023-03-01T07:18:26;29.90;;;11.68;;
75437;SDS011;64015;49.392;15.582;2023-03-01T07:20:52;33.55;;;13.68;;
75437;SDS011;64015;49.392;15.582;2023-03-01T07:23:18;34.15;;;13.30;;
75437;SDS011;64015;49.392;15.582;2023-03-01T07:25:44;33.00;;;13.70;;
75437;SDS011;64015;49.392;15.582;2023-03-01T07:28:20;33.38;;;13.48;;
75437;SDS011;64015;49.392;15.582;2023-03-01T07:30:48;34.60;;;13.73;;
75437;SDS011;64015;49.392;15.582;2023-03-01T07:33:14;26.73;;;12.30;;
75437;SDS011;64015;49.392;15.582;2023-03-01T07:35:40;29.48;;;12.35;;
75437;SDS011;64015;49.392;15.582;2023-03-01T07:38:08;27.52;;;11.80;;
75437;SDS011;64015;49.392;15.582;2023-03-01T07:40:33;27.58;;;11.10;;
75437;SDS011;64015;49.392;15.582;2023-03-01T07:42:59;27.95;;;11.52;;
75437;SDS011;64015;49.392;15.582;2023-03-01T07:45:27;27.38;;;11.30;;
75437;SDS011;64015;49.392;15.582;2023-03-01T07:47:53;26.20;;;12.30;;
75437;SDS011;64015;49.392;15.582;2023-03-01T07:50:20;28.75;;;11.18;;
75437;SDS011;64015;49.392;15.582;2023-03-01T07:52:47;27.88;;;11.43;;
75437;SDS011;64015;49.392;15.582;2023-03-01T07:55:14;27.30;;;10.75;;
75437;SDS011;64015;49.392;15.582;2023-03-01T07:57:41;24.30;;;10.65;;
75437;SDS011;64015;49.392;15.582;2023-03-01T08:00:07;24.00;;;10.80;;
75437;SDS011;64015;49.392;15.582;2023-03-01T08:02:35;23.75;;;11.27;;
75437;SDS011;64015;49.392;15.582;2023-03-01T08:05:01;22.17;;;9.98;;
75437;SDS011;64015;49.392;15.582;2023-03-01T08:07:26;21.92;;;9.95;;
75437;SDS011;64015;49.392;15.582;2023-03-01T08:09:52;26.02;;;10.52;;
75437;SDS011;64015;49.392;15.582;2023-03-01T08:12:18;27.40;;;11.35;;
75437;SDS011;64015;49.392;15.582;2023-03-01T08:14:44;23.90;;;11.27;;
75437;SDS011;64015;49.392;15.582;2023-03-01T08:17:10;29.20;;;10.98;;
75437;SDS011;64015;49.392;15.582;2023-03-01T08:19:36;27.52;;;11.95;;
75437;SDS011;64015;49.392;15.582;2023-03-01T08:22:02;25.05;;;11.90;;
75437;SDS011;64015;49.392;15.582;2023-03-01T08:24:28;29.05;;;12.13;;
75437;SDS011;64015;49.392;15.582;2023-03-01T08:26:56;26.52;;;11.45;;
75437;SDS011;64015;49.392;15.582;2023-03-01T08:29:23;26.13;;;10.95;;
75437;SDS011;64015;49.392;15.582;2023-03-01T08:31:50;26.02;;;11.60;;
75437;SDS011;64015;49.392;15.582;2023-03-01T08:34:17;22.83;;;11.07;;
75437;SDS011;64015;49.392;15.582;2023-03-01T08:36:44;24.52;;;10.82;;
75437;SDS011;64015;49.392;15.582;2023-03-01T08:39:12;27.13;;;10.50;;
75437;SDS011;64015;49.392;15.582;2023-03-01T08:41:40;20.35;;;10.48;;
75437;SDS011;64015;49.392;15.582;2023-03-01T08:44:06;24.85;;;10.43;;
75437;SDS011;64015;49.392;15.582;2023-03-01T08:46:33;27.65;;;11.60;;
75437;SDS011;64015;49.392;15.582;2023-03-01T08:49:04;26.20;;;10.40;;
75437;SDS011;64015;49.392;15.582;2023-03-01T08:51:33;25.77;;;10.63;;
75437;SDS011;64015;49.392;15.582;2023-03-01T08:54:04;26.08;;;11.13;;
75437;SDS011;64015;49.392;15.582;2023-03-01T08:56:30;23.58;;;11.18;;
75437;SDS011;64015;49.392;15.582;2023-03-01T08:58:56;23.50;;;9.85;;
75437;SDS011;64015;49.392;15.582;2023-03-01T09:01:37;24.48;;;11.60;;
75437;SDS011;64015;49.392;15.582;2023-03-01T09:04:04;21.98;;;10.18;;
75437;SDS011;64015;49.392;15.582;2023-03-01T09:06:30;22.00;;;9.23;;
75437;SDS011;64015;49.392;15.582;2023-03-01T09:08:58;21.88;;;10.40;;
75437;SDS011;64015;49.392;15.582;2023-03-01T09:11:24;20.80;;;10.38;;
75437;SDS011;64015;49.392;15.582;2023-03-01T09:13:50;21.33;;;9.63;;
75437;SDS011;64015;49.392;15.582;2023-03-01T09:16:16;22.85;;;10.68;;
75437;SDS011;64015;49.392;15.582;2023-03-01T09:21:13;22.27;;;9.15;;
75437;SDS011;64015;49.392;15.582;2023-03-01T09:23:41;22.98;;;10.48;;
75437;SDS011;64015;49.392;15.582;2023-03-01T09:26:08;20.70;;;9.32;;
75437;SDS011;64015;49.392;15.582;2023-03-01T09:28:36;21.15;;;10.50;;
75437;SDS011;64015;49.392;15.582;2023-03-01T09:31:02;24.42;;;10.18;;
75437;SDS011;64015;49.392;15.582;2023-03-01T09:33:30;21.17;;;10.27;;
75437;SDS011;64015;49.392;15.582;2023-03-01T09:35:58;25.77;;;11.88;;
75437;SDS011;64015;49.392;15.582;2023-03-01T09:38:28;51.10;;;19.25;;
75437;SDS011;64015;49.392;15.582;2023-03-01T09:40:55;47.88;;;18.48;;
75437;SDS011;64015;49.392;15.582;2023-03-01T09:46:05;25.38;;;11.40;;
75437;SDS011;64015;49.392;15.582;2023-03-01T09:51:37;19.63;;;10.05;;
75437;SDS011;64015;49.392;15.582;2023-03-01T09:54:05;22.90;;;9.60;;
75437;SDS011;64015;49.392;15.582;2023-03-01T10:05:11;22.92;;;10.93;;
75437;SDS011;64015;49.392;15.582;2023-03-01T10:10:39;22.02;;;9.25;;
75437;SDS011;64015;49.392;15.582;2023-03-01T10:15:53;20.33;;;9.00;;
75437;SDS011;64015;49.392;15.582;2023-03-01T10:18:27;21.10;;;9.63;;
75437;SDS011;64015;49.392;15.582;2023-03-01T10:20:57;19.90;;;10.85;;
75437;SDS011;64015;49.392;15.582;2023-03-01T10:23:26;21.38;;;9.98;;
75437;SDS011;64015;49.392;15.582;2023-03-01T10:26:03;25.73;;;11.18;;
75437;SDS011;64015;49.392;15.582;2023-03-01T10:28:50;20.77;;;11.80;;
75437;SDS011;64015;49.392;15.582;2023-03-01T10:31:22;20.98;;;9.98;;
75437;SDS011;64015;49.392;15.582;2023-03-01T10:33:53;20.58;;;10.40;;
75437;SDS011;64015;49.392;15.582;2023-03-01T10:36:21;19.73;;;9.88;;
75437;SDS011;64015;49.392;15.582;2023-03-01T10:38:52;19.08;;;8.95;;
75437;SDS011;64015;49.392;15.582;2023-03-01T10:41:23;18.70;;;9.30;;
75437;SDS011;64015;49.392;15.582;2023-03-01T10:43:51;18.90;;;9.02;;
75437;SDS011;64015;49.392;15.582;2023-03-01T10:51:32;17.65;;;8.70;;
75437;SDS011;64015;49.392;15.582;2023-03-01T10:53:57;17.20;;;9.13;;
75437;SDS011;64015;49.392;15.582;2023-03-01T10:56:23;17.88;;;8.82;;
75437;SDS011;64015;49.392;15.582;2023-03-01T11:06:33;17.88;;;8.90;;
75437;SDS011;64015;49.392;15.582;2023-03-01T11:09:17;18.65;;;9.20;;
75437;SDS011;64015;49.392;15.582;2023-03-01T11:11:45;18.38;;;9.00;;
75437;SDS011;64015;49.392;15.582;2023-03-01T11:14:17;17.67;;;9.05;;
75437;SDS011;64015;49.392;15.582;2023-03-01T11:16:48;17.08;;;8.68;;
75437;SDS011;64015;49.392;15.582;2023-03-01T11:19:23;17.55;;;9.15;;
75437;SDS011;64015;49.392;15.582;2023-03-01T11:27:35;16.77;;;9.40;;
75437;SDS011;64015;49.392;15.582;2023-03-01T11:35:34;19.27;;;9.25;;
75437;SDS011;64015;49.392;15.582;2023-03-01T11:41:03;21.23;;;9.93;;
75437;SDS011;64015;49.392;15.582;2023-03-01T11:46:08;15.45;;;8.57;;
75437;SDS011;64015;49.392;15.582;2023-03-01T11:51:25;15.75;;;8.40;;
75437;SDS011;64015;49.392;15.582;2023-03-01T11:56:32;17.52;;;8.55;;
75437;SDS011;64015;49.392;15.582;2023-03-01T11:59:31;18.42;;;9.38;;
75437;SDS011;64015;49.392;15.582;2023-03-01T12:07:21;20.55;;;10.13;;
75437;SDS011;64015;49.392;15.582;2023-03-01T12:10:17;15.77;;;8.90;;
75437;SDS011;64015;49.392;15.582;2023-03-01T12:12:54;20.30;;;9.38;;
75437;SDS011;64015;49.392;15.582;2023-03-01T12:37:33;18.10;;;8.25;;
75437;SDS011;64015;49.392;15.582;2023-03-01T12:51:24;16.45;;;8.05;;
75437;SDS011;64015;49.392;15.582;2023-03-01T12:53:54;13.98;;;8.07;;
75437;SDS011;64015;49.392;15.582;2023-03-01T12:56:23;15.15;;;8.40;;
75437;SDS011;64015;49.392;15.582;2023-03-01T13:10:11;10.68;;;6.88;;
75437;SDS011;64015;49.392;15.582;2023-03-01T13:13:00;11.98;;;6.57;;
75437;SDS011;64015;49.392;15.582;2023-03-01T13:15:29;12.75;;;7.13;;
75437;SDS011;64015;49.392;15.582;2023-03-01T13:23:11;14.25;;;6.97;;
75437;SDS011;64015;49.392;15.582;2023-03-01T13:31:00;16.02;;;9.05;;
75437;SDS011;64015;49.392;15.582;2023-03-01T13:35:54;14.70;;;8.30;;
75437;SDS011;64015;49.392;15.582;2023-03-01T13:38:37;13.85;;;8.90;;
75437;SDS011;64015;49.392;15.582;2023-03-01T13:41:14;15.75;;;8.75;;
75437;SDS011;64015;49.392;15.582;2023-03-01T13:43:43;14.93;;;8.60;;
75437;SDS011;64015;49.392;15.582;2023-03-01T13:46:20;14.73;;;8.20;;
75437;SDS011;64015;49.392;15.582;2023-03-01T13:48:52;12.50;;;8.07;;
75437;SDS011;64015;49.392;15.582;2023-03-01T13:51:22;12.57;;;6.50;;
75437;SDS011;64015;49.392;15.582;2023-03-01T13:53:50;11.68;;;6.18;;
75437;SDS011;64015;49.392;15.582;2023-03-01T13:56:20;11.02;;;5.68;;
75437;SDS011;64015;49.392;15.582;2023-03-01T13:58:53;11.05;;;6.03;;
75437;SDS011;64015;49.392;15.582;2023-03-01T14:01:32;9.73;;;5.75;;
75437;SDS011;64015;49.392;15.582;2023-03-01T14:04:00;12.57;;;6.40;;
75437;SDS011;64015;49.392;15.582;2023-03-01T14:06:31;11.05;;;5.70;;
75437;SDS011;64015;49.392;15.582;2023-03-01T14:09:03;11.25;;;5.82;;
75437;SDS011;64015;49.392;15.582;2023-03-01T14:20:02;13.90;;;6.85;;
75437;SDS011;64015;49.392;15.582;2023-03-01T14:22:35;13.05;;;6.55;;
75437;SDS011;64015;49.392;15.582;2023-03-01T14:25:03;13.80;;;6.70;;
75437;SDS011;64015;49.392;15.582;2023-03-01T14:27:33;13.65;;;7.10;;
75437;SDS011;64015;49.392;15.582;2023-03-01T14:30:41;11.20;;;7.15;;
75437;SDS011;64015;49.392;15.582;2023-03-01T14:33:05;13.98;;;6.75;;
75437;SDS011;64015;49.392;15.582;2023-03-01T14:35:42;13.05;;;6.45;;
75437;SDS011;64015;49.392;15.582;2023-03-01T14:38:23;11.32;;;6.45;;
75437;SDS011;64015;49.392;15.582;2023-03-01T14:40:57;13.45;;;7.28;;
75437;SDS011;64015;49.392;15.582;2023-03-01T14:43:27;12.65;;;6.43;;
75437;SDS011;64015;49.392;15.582;2023-03-01T14:45:54;14.27;;;6.60;;
75437;SDS011;64015;49.392;15.582;2023-03-01T14:48:21;14.55;;;6.90;;
75437;SDS011;64015;49.392;15.582;2023-03-01T14:50:46;15.23;;;7.60;;
75437;SDS011;64015;49.392;15.582;2023-03-01T14:53:18;17.90;;;8.60;;
75437;SDS011;64015;49.392;15.582;2023-03-01T14:55:54;15.25;;;7.68;;
75437;SDS011;64015;49.392;15.582;2023-03-01T14:58:23;16.20;;;7.82;;
75437;SDS011;64015;49.392;15.582;2023-03-01T15:00:54;13.95;;;6.43;;
75437;SDS011;64015;49.392;15.582;2023-03-01T15:03:35;15.07;;;6.97;;
75437;SDS011;64015;49.392;15.582;2023-03-01T15:06:04;15.18;;;7.47;;
75437;SDS011;64015;49.392;15.582;2023-03-01T15:08:32;26.42;;;12.88;;
75437;SDS011;64015;49.392;15.582;2023-03-01T15:13:55;14.50;;;7.25;;
75437;SDS011;64015;49.392;15.582;2023-03-01T15:16:31;14.40;;;7.15;;
75437;SDS011;64015;49.392;15.582;2023-03-01T15:19:00;12.70;;;7.03;;
75437;SDS011;64015;49.392;15.582;2023-03-01T15:21:32;13.82;;;7.07;;
75437;SDS011;64015;49.392;15.582;2023-03-01T15:24:20;14.32;;;7.22;;
75437;SDS011;64015;49.392;15.582;2023-03-01T15:29:20;15.55;;;7.80;;
75437;SDS011;64015;49.392;15.582;2023-03-01T15:31:58;12.90;;;6.88;;
75437;SDS011;64015;49.392;15.582;2023-03-01T15:34:27;14.57;;;7.68;;
75437;SDS011;64015;49.392;15.582;2023-03-01T15:36:56;14.77;;;7.40;;
75437;SDS011;64015;49.392;15.582;2023-03-01T15:45:19;13.73;;;7.43;;
75437;SDS011;64015;49.392;15.582;2023-03-01T15:47:46;12.85;;;7.07;;
75437;SDS011;64015;49.392;15.582;2023-03-01T15:50:32;13.50;;;7.28;;
75437;SDS011;64015;49.392;15.582;2023-03-01T15:53:03;11.43;;;7.07;;
75437;SDS011;64015;49.392;15.582;2023-03-01T15:55:36;11.18;;;6.50;;
75437;SDS011;64015;49.392;15.582;2023-03-01T15:58:04;14.73;;;6.80;;
75437;SDS011;64015;49.392;15.582;2023-03-01T16:00:41;13.57;;;6.20;;
75437;SDS011;64015;49.392;15.582;2023-03-01T16:03:08;14.25;;;6.75;;
75437;SDS011;64015;49.392;15.582;2023-03-01T16:05:37;15.23;;;7.43;;
75437;SDS011;64015;49.392;15.582;2023-03-01T16:08:04;16.25;;;7.82;;
75437;SDS011;64015;49.392;15.582;2023-03-01T16:10:32;12.35;;;6.90;;
75437;SDS011;64015;49.392;15.582;2023-03-01T16:15:26;13.45;;;6.28;;
75437;SDS011;64015;49.392;15.582;2023-03-01T16:17:54;16.92;;;7.45;;
75437;SDS011;64015;49.392;15.582;2023-03-01T16:20:20;16.05;;;7.75;;
75437;SDS011;64015;49.392;15.582;2023-03-01T16:22:46;14.32;;;7.47;;
75437;SDS011;64015;49.392;15.582;2023-03-01T16:25:13;17.38;;;7.82;;
75437;SDS011;64015;49.392;15.582;2023-03-01T16:27:48;16.20;;;7.40;;
75437;SDS011;64015;49.392;15.582;2023-03-01T16:30:15;16.08;;;7.60;;
75437;SDS011;64015;49.392;15.582;2023-03-01T16:32:44;17.48;;;7.55;;
75437;SDS011;64015;49.392;15.582;2023-03-01T16:35:12;17.15;;;6.90;;
75437;SDS011;64015;49.392;15.582;2023-03-01T16:37:39;16.58;;;8.02;;
75437;SDS011;64015;49.392;15.582;2023-03-01T16:40:06;16.45;;;7.38;;
75437;SDS011;64015;49.392;15.582;2023-03-01T16:42:41;18.48;;;7.60;;
75437;SDS011;64015;49.392;15.582;2023-03-01T16:45:07;19.90;;;8.65;;
75437;SDS011;64015;49.392;15.582;2023-03-01T16:47:34;21.15;;;7.95;;
75437;SDS011;64015;49.392;15.582;2023-03-01T16:50:00;16.67;;;7.63;;
75437;SDS011;64015;49.392;15.582;2023-03-01T16:52:26;18.88;;;8.63;;
75437;SDS011;64015;49.392;15.582;2023-03-01T16:54:52;15.85;;;7.28;;
75437;SDS011;64015;49.392;15.582;2023-03-01T16:57:17;16.33;;;7.00;;
75437;SDS011;64015;49.392;15.582;2023-03-01T16:59:44;18.23;;;7.30;;
75437;SDS011;64015;49.392;15.582;2023-03-01T17:02:11;19.70;;;8.27;;
75437;SDS011;64015;49.392;15.582;2023-03-01T17:04:39;16.83;;;7.60;;
75437;SDS011;64015;49.392;15.582;2023-03-01T17:07:05;18.50;;;8.75;;
75437;SDS011;64015;49.392;15.582;2023-03-01T17:09:35;28.67;;;10.30;;